sensor_id;sensor_type;location;lat;lon;timestamp;pressure;altitude;pressure_sealevel;temperature;humidity
77323;BME280;66384;51.052;9.850;2023-05-31T00:00:15;99392.51;;;12.59;58.93
77323;BME280;66384;51.052;9.850;2023-05-31T00:02:44;99392.59;;;12.55;59.21
77323;BME280;66384;51.052;9.850;2023-05-31T00:05:13;99390.93;;;12.52;59.48
77323;BME280;66384;51.052;9.850;2023-05-31T00:07:43;99388.21;;;12.48;59.53
77323;BME280;66384;51.052;9.850;2023-05-31T00:10:12;99388.58;;;12.43;59.71
77323;BME280;66384;51.052;9.850;2023-05-31T00:12:41;99387.64;;;12.40;59.64
77323;BME280;66384;51.052;9.850;2023-05-31T00:15:12;99384.61;;;12.37;59.72
77323;BME280;66384;51.052;9.850;2023-05-31T00:17:42;99386.35;;;12.37;59.67
77323;BME280;66384;51.052;9.850;2023-05-31T00:20:11;99383.55;;;12.36;59.85
77323;BME280;66384;51.052;9.850;2023-05-31T00:22:40;99383.69;;;12.35;59.68
77323;BME280;66384;51.052;9.850;2023-05-31T00:25:10;99384.68;;;12.33;59.84
77323;BME280;66384;51.052;9.850;2023-05-31T00:27:39;99388.08;;;12.32;59.82
77323;BME280;66384;51.052;9.850;2023-05-31T00:30:11;99389.39;;;12.29;59.92
77323;BME280;66384;51.052;9.850;2023-05-31T00:32:40;99393.69;;;12.28;59.87
77323;BME280;66384;51.052;9.850;2023-05-31T00:35:11;99396.40;;;12.27;59.99
77323;BME280;66384;51.052;9.850;2023-05-31T00:37:40;99396.49;;;12.24;60.03
77323;BME280;66384;51.052;9.850;2023-05-31T00:40:10;99399.16;;;12.22;60.06
77323;BME280;66384;51.052;9.850;2023-05-31T00:42:39;99397.67;;;12.18;60.14
77323;BME280;66384;51.052;9.850;2023-05-31T00:45:10;99397.70;;;12.13;59.99
77323;BME280;66384;51.052;9.850;2023-05-31T00:47:40;99400.76;;;12.06;60.10
77323;BME280;66384;51.052;9.850;2023-05-31T00:50:12;99398.52;;;12.01;60.28
77323;BME280;66384;51.052;9.850;2023-05-31T00:52:41;99401.15;;;11.92;60.58
77323;BME280;66384;51.052;9.850;2023-05-31T00:55:11;99394.55;;;11.85;60.64
77323;BME280;66384;51.052;9.850;2023-05-31T00:57:42;99398.08;;;11.82;60.75
77323;BME280;66384;51.052;9.850;2023-05-31T01:00:13;99398.50;;;11.79;60.93
77323;BME280;66384;51.052;9.850;2023-05-31T01:02:43;99399.49;;;11.73;60.83
77323;BME280;66384;51.052;9.850;2023-05-31T01:05:13;99396.98;;;11.66;61.04
77323;BME280;66384;51.052;9.850;2023-05-31T01:07:42;99398.95;;;11.57;61.39
77323;BME280;66384;51.052;9.850;2023-05-31T01:10:12;99399.67;;;11.53;61.60
77323;BME280;66384;51.052;9.850;2023-05-31T01:12:51;99399.13;;;11.52;61.78
77323;BME280;66384;51.052;9.850;2023-05-31T01:15:26;99397.26;;;11.53;61.83
77323;BME280;66384;51.052;9.850;2023-05-31T01:18:02;99392.42;;;11.52;61.56
77323;BME280;66384;51.052;9.850;2023-05-31T01:20:39;99392.96;;;11.48;61.56
77323;BME280;66384;51.052;9.850;2023-05-31T01:23:21;99390.56;;;11.48;61.72
77323;BME280;66384;51.052;9.850;2023-05-31T01:26:28;99389.21;;;11.50;61.71
77323;BME280;66384;51.052;9.850;2023-05-31T01:29:07;99391.06;;;11.48;62.03
77323;BME280;66384;51.052;9.850;2023-05-31T01:31:38;99398.56;;;11.45;61.84
77323;BME280;66384;51.052;9.850;2023-05-31T01:34:09;99401.78;;;11.44;61.82
77323;BME280;66384;51.052;9.850;2023-05-31T01:36:38;99392.80;;;11.44;61.89
77323;BME280;66384;51.052;9.850;2023-05-31T01:39:08;99389.56;;;11.44;62.23
77323;BME280;66384;51.052;9.850;2023-05-31T01:41:40;99391.80;;;11.45;62.36
77323;BME280;66384;51.052;9.850;2023-05-31T01:44:13;99387.98;;;11.44;62.22
77323;BME280;66384;51.052;9.850;2023-05-31T01:46:42;99387.55;;;11.46;62.11
77323;BME280;66384;51.052;9.850;2023-05-31T01:49:13;99386.24;;;11.48;62.01
77323;BME280;66384;51.052;9.850;2023-05-31T01:51:44;99388.35;;;11.49;61.96
77323;BME280;66384;51.052;9.850;2023-05-31T01:54:14;99388.98;;;11.48;61.96
77323;BME280;66384;51.052;9.850;2023-05-31T01:56:44;99387.81;;;11.44;61.84
77323;BME280;66384;51.052;9.850;2023-05-31T01:59:14;99388.44;;;11.36;61.74
77323;BME280;66384;51.052;9.850;2023-05-31T02:01:44;99387.61;;;11.32;61.77
77323;BME280;66384;51.052;9.850;2023-05-31T02:04:18;99387.19;;;11.30;61.84
77323;BME280;66384;51.052;9.850;2023-05-31T02:06:48;99390.55;;;11.28;61.77
77323;BME280;66384;51.052;9.850;2023-05-31T02:09:19;99391.86;;;11.26;61.91
77323;BME280;66384;51.052;9.850;2023-05-31T02:11:49;99393.90;;;11.24;62.22
77323;BME280;66384;51.052;9.850;2023-05-31T02:14:18;99398.42;;;11.21;61.64
77323;BME280;66384;51.052;9.850;2023-05-31T02:16:47;99397.77;;;11.17;61.83
77323;BME280;66384;51.052;9.850;2023-05-31T02:19:17;99397.28;;;11.13;61.76
77323;BME280;66384;51.052;9.850;2023-05-31T02:21:47;99398.84;;;11.14;61.96
77323;BME280;66384;51.052;9.850;2023-05-31T02:24:16;99397.73;;;11.12;61.80
77323;BME280;66384;51.052;9.850;2023-05-31T02:26:45;99395.98;;;11.11;61.93
77323;BME280;66384;51.052;9.850;2023-05-31T02:29:14;99391.61;;;11.09;61.94
77323;BME280;66384;51.052;9.850;2023-05-31T02:31:44;99396.40;;;11.08;61.94
77323;BME280;66384;51.052;9.850;2023-05-31T02:34:13;99397.14;;;11.04;61.75
77323;BME280;66384;51.052;9.850;2023-05-31T02:36:42;99398.35;;;11.00;61.66
77323;BME280;66384;51.052;9.850;2023-05-31T02:39:12;99396.19;;;10.97;61.86
77323;BME280;66384;51.052;9.850;2023-05-31T02:41:41;99395.16;;;10.92;61.64
77323;BME280;66384;51.052;9.850;2023-05-31T02:44:10;99395.91;;;10.89;61.90
77323;BME280;66384;51.052;9.850;2023-05-31T02:46:40;99400.29;;;10.86;62.09
77323;BME280;66384;51.052;9.850;2023-05-31T02:49:09;99399.84;;;10.84;61.93
77323;BME280;66384;51.052;9.850;2023-05-31T02:51:38;99404.21;;;10.81;62.27
77323;BME280;66384;51.052;9.850;2023-05-31T02:54:07;99398.67;;;10.80;62.39
77323;BME280;66384;51.052;9.850;2023-05-31T02:56:37;99400.13;;;10.73;62.12
77323;BME280;66384;51.052;9.850;2023-05-31T02:59:06;99408.04;;;10.59;61.83
77323;BME280;66384;51.052;9.850;2023-05-31T03:01:35;99408.25;;;10.51;62.12
77323;BME280;66384;51.052;9.850;2023-05-31T03:04:04;99407.09;;;10.47;62.07
77323;BME280;66384;51.052;9.850;2023-05-31T03:06:34;99408.29;;;10.42;61.97
77323;BME280;66384;51.052;9.850;2023-05-31T03:09:03;99405.93;;;10.39;61.94
77323;BME280;66384;51.052;9.850;2023-05-31T03:11:32;99408.25;;;10.37;61.83
77323;BME280;66384;51.052;9.850;2023-05-31T03:14:01;99407.48;;;10.31;61.86
77323;BME280;66384;51.052;9.850;2023-05-31T03:16:31;99415.22;;;10.27;61.84
77323;BME280;66384;51.052;9.850;2023-05-31T03:19:00;99411.56;;;10.26;62.07
77323;BME280;66384;51.052;9.850;2023-05-31T03:21:29;99412.35;;;10.20;62.13
77323;BME280;66384;51.052;9.850;2023-05-31T03:23:59;99411.39;;;10.13;61.95
77323;BME280;66384;51.052;9.850;2023-05-31T03:26:28;99408.66;;;10.13;62.22
77323;BME280;66384;51.052;9.850;2023-05-31T03:28:57;99414.61;;;10.16;62.58
77323;BME280;66384;51.052;9.850;2023-05-31T03:31:26;99410.70;;;10.17;62.38
77323;BME280;66384;51.052;9.850;2023-05-31T03:33:57;99412.86;;;10.20;62.39
77323;BME280;66384;51.052;9.850;2023-05-31T03:36:26;99413.77;;;10.20;62.44
77323;BME280;66384;51.052;9.850;2023-05-31T03:38:55;99419.13;;;10.21;62.16
77323;BME280;66384;51.052;9.850;2023-05-31T03:41:24;99419.31;;;10.22;62.23
77323;BME280;66384;51.052;9.850;2023-05-31T03:43:53;99415.52;;;10.21;62.16
77323;BME280;66384;51.052;9.850;2023-05-31T03:46:23;99415.34;;;10.21;62.08
77323;BME280;66384;51.052;9.850;2023-05-31T03:48:52;99415.21;;;10.22;61.87
77323;BME280;66384;51.052;9.850;2023-05-31T03:51:22;99413.46;;;10.17;61.91
77323;BME280;66384;51.052;9.850;2023-05-31T03:53:51;99413.90;;;10.15;61.86
77323;BME280;66384;51.052;9.850;2023-05-31T03:56:20;99415.08;;;10.15;61.90
77323;BME280;66384;51.052;9.850;2023-05-31T03:58:50;99413.94;;;10.16;62.05
77323;BME280;66384;51.052;9.850;2023-05-31T04:01:19;99417.48;;;10.19;62.14
77323;BME280;66384;51.052;9.850;2023-05-31T04:03:49;99420.64;;;10.21;62.22
77323;BME280;66384;51.052;9.850;2023-05-31T04:06:18;99422.96;;;10.23;62.15
77323;BME280;66384;51.052;9.850;2023-05-31T04:08:48;99419.25;;;10.25;62.10
77323;BME280;66384;51.052;9.850;2023-05-31T04:11:18;99417.50;;;10.27;62.10
77323;BME280;66384;51.052;9.850;2023-05-31T04:13:47;99416.67;;;10.29;61.97
77323;BME280;66384;51.052;9.850;2023-05-31T04:16:16;99417.06;;;10.30;62.21
77323;BME280;66384;51.052;9.850;2023-05-31T04:18:45;99418.05;;;10.29;62.13
77323;BME280;66384;51.052;9.850;2023-05-31T04:21:15;99423.23;;;10.29;62.29
77323;BME280;66384;51.052;9.850;2023-05-31T04:23:44;99426.40;;;10.31;62.39
77323;BME280;66384;51.052;9.850;2023-05-31T04:26:13;99429.09;;;10.33;62.39
77323;BME280;66384;51.052;9.850;2023-05-31T04:28:44;99432.41;;;10.35;62.41
77323;BME280;66384;51.052;9.850;2023-05-31T04:31:22;99428.49;;;10.36;62.72
77323;BME280;66384;51.052;9.850;2023-05-31T04:33:53;99429.52;;;10.40;62.79
77323;BME280;66384;51.052;9.850;2023-05-31T04:36:24;99435.89;;;10.45;63.08
77323;BME280;66384;51.052;9.850;2023-05-31T04:38:54;99429.98;;;10.48;63.07
77323;BME280;66384;51.052;9.850;2023-05-31T04:41:24;99429.35;;;10.49;63.21
77323;BME280;66384;51.052;9.850;2023-05-31T04:43:55;99429.64;;;10.52;63.41
77323;BME280;66384;51.052;9.850;2023-05-31T04:46:25;99427.90;;;10.57;63.73
77323;BME280;66384;51.052;9.850;2023-05-31T04:48:54;99428.81;;;10.62;63.72
77323;BME280;66384;51.052;9.850;2023-05-31T04:51:25;99428.52;;;10.68;64.06
77323;BME280;66384;51.052;9.850;2023-05-31T04:53:54;99428.26;;;10.76;64.31
77323;BME280;66384;51.052;9.850;2023-05-31T04:56:24;99431.07;;;10.81;64.18
77323;BME280;66384;51.052;9.850;2023-05-31T04:58:53;99428.80;;;10.85;64.42
77323;BME280;66384;51.052;9.850;2023-05-31T05:01:22;99431.93;;;10.91;64.36
77323;BME280;66384;51.052;9.850;2023-05-31T05:03:52;99429.25;;;10.98;64.52
77323;BME280;66384;51.052;9.850;2023-05-31T05:06:21;99431.18;;;11.03;64.71
77323;BME280;66384;51.052;9.850;2023-05-31T05:08:51;99432.74;;;11.09;64.91
77323;BME280;66384;51.052;9.850;2023-05-31T05:11:20;99429.70;;;11.15;64.85
77323;BME280;66384;51.052;9.850;2023-05-31T05:13:50;99431.50;;;11.22;65.06
77323;BME280;66384;51.052;9.850;2023-05-31T05:16:19;99428.81;;;11.29;65.22
77323;BME280;66384;51.052;9.850;2023-05-31T05:18:49;99432.15;;;11.35;65.46
77323;BME280;66384;51.052;9.850;2023-05-31T05:21:18;99438.59;;;11.42;65.70
77323;BME280;66384;51.052;9.850;2023-05-31T05:23:47;99437.45;;;11.49;65.75
77323;BME280;66384;51.052;9.850;2023-05-31T05:26:17;99438.00;;;11.56;65.93
77323;BME280;66384;51.052;9.850;2023-05-31T05:28:46;99438.61;;;11.63;65.94
77323;BME280;66384;51.052;9.850;2023-05-31T05:31:15;99444.24;;;11.72;66.04
77323;BME280;66384;51.052;9.850;2023-05-31T05:33:44;99446.21;;;11.79;66.10
77323;BME280;66384;51.052;9.850;2023-05-31T05:36:14;99442.89;;;11.87;66.14
77323;BME280;66384;51.052;9.850;2023-05-31T05:38:43;99442.51;;;11.97;66.31
77323;BME280;66384;51.052;9.850;2023-05-31T05:41:12;99442.75;;;12.04;66.34
77323;BME280;66384;51.052;9.850;2023-05-31T05:43:42;99443.52;;;12.12;66.44
77323;BME280;66384;51.052;9.850;2023-05-31T05:46:11;99443.80;;;12.20;66.41
77323;BME280;66384;51.052;9.850;2023-05-31T05:48:41;99442.68;;;12.29;66.57
77323;BME280;66384;51.052;9.850;2023-05-31T05:51:10;99442.05;;;12.37;66.50
77323;BME280;66384;51.052;9.850;2023-05-31T05:53:39;99434.87;;;12.44;66.40
77323;BME280;66384;51.052;9.850;2023-05-31T05:56:08;99436.52;;;12.53;66.34
77323;BME280;66384;51.052;9.850;2023-05-31T05:58:39;99436.09;;;12.61;66.28
77323;BME280;66384;51.052;9.850;2023-05-31T06:01:08;99438.92;;;12.70;66.34
77323;BME280;66384;51.052;9.850;2023-05-31T06:03:40;99436.40;;;12.79;66.16
77323;BME280;66384;51.052;9.850;2023-05-31T06:06:09;99440.10;;;12.87;65.91
77323;BME280;66384;51.052;9.850;2023-05-31T06:08:39;99436.88;;;12.95;65.77
77323;BME280;66384;51.052;9.850;2023-05-31T06:11:08;99434.52;;;13.03;65.52
77323;BME280;66384;51.052;9.850;2023-05-31T06:13:37;99435.94;;;13.10;65.23
77323;BME280;66384;51.052;9.850;2023-05-31T06:16:07;99435.63;;;13.18;65.12
77323;BME280;66384;51.052;9.850;2023-05-31T06:18:36;99439.33;;;13.27;65.01
77323;BME280;66384;51.052;9.850;2023-05-31T06:21:06;99438.49;;;13.34;64.98
77323;BME280;66384;51.052;9.850;2023-05-31T06:23:35;99439.77;;;13.42;64.81
77323;BME280;66384;51.052;9.850;2023-05-31T06:26:04;99443.26;;;13.50;64.44
77323;BME280;66384;51.052;9.850;2023-05-31T06:28:33;99444.69;;;13.58;64.47
77323;BME280;66384;51.052;9.850;2023-05-31T06:31:02;99447.27;;;13.65;64.18
77323;BME280;66384;51.052;9.850;2023-05-31T06:33:32;99444.73;;;13.73;64.07
77323;BME280;66384;51.052;9.850;2023-05-31T06:36:01;99444.40;;;13.80;64.06
77323;BME280;66384;51.052;9.850;2023-05-31T06:38:30;99443.39;;;13.88;63.78
77323;BME280;66384;51.052;9.850;2023-05-31T06:41:00;99443.94;;;13.96;63.57
77323;BME280;66384;51.052;9.850;2023-05-31T06:43:29;99440.66;;;14.04;63.59
77323;BME280;66384;51.052;9.850;2023-05-31T06:45:58;99442.24;;;14.13;63.38
77323;BME280;66384;51.052;9.850;2023-05-31T06:48:27;99444.52;;;14.21;62.92
77323;BME280;66384;51.052;9.850;2023-05-31T06:50:57;99444.39;;;14.30;62.61
77323;BME280;66384;51.052;9.850;2023-05-31T06:53:26;99444.05;;;14.38;62.43
77323;BME280;66384;51.052;9.850;2023-05-31T06:55:55;99444.27;;;14.47;62.02
77323;BME280;66384;51.052;9.850;2023-05-31T06:58:25;99447.27;;;14.57;61.96
77323;BME280;66384;51.052;9.850;2023-05-31T07:00:58;99442.98;;;14.66;61.75
77323;BME280;66384;51.052;9.850;2023-05-31T07:03:27;99443.02;;;14.76;61.33
77323;BME280;66384;51.052;9.850;2023-05-31T07:05:56;99442.36;;;14.85;60.87
77323;BME280;66384;51.052;9.850;2023-05-31T07:08:26;99436.83;;;14.95;60.51
77323;BME280;66384;51.052;9.850;2023-05-31T07:10:55;99440.49;;;15.05;60.59
77323;BME280;66384;51.052;9.850;2023-05-31T07:13:24;99437.75;;;15.14;60.28
77323;BME280;66384;51.052;9.850;2023-05-31T07:15:54;99435.70;;;15.25;60.03
77323;BME280;66384;51.052;9.850;2023-05-31T07:18:23;99433.98;;;15.35;59.42
77323;BME280;66384;51.052;9.850;2023-05-31T07:20:52;99436.41;;;15.44;58.95
77323;BME280;66384;51.052;9.850;2023-05-31T07:23:25;99436.60;;;15.54;58.44
77323;BME280;66384;51.052;9.850;2023-05-31T07:25:54;99431.39;;;15.64;58.22
77323;BME280;66384;51.052;9.850;2023-05-31T07:28:25;99424.81;;;15.72;57.99
77323;BME280;66384;51.052;9.850;2023-05-31T07:30:54;99422.88;;;15.81;57.62
77323;BME280;66384;51.052;9.850;2023-05-31T07:33:23;99423.91;;;15.91;57.39
77323;BME280;66384;51.052;9.850;2023-05-31T07:35:52;99426.14;;;16.01;56.82
77323;BME280;66384;51.052;9.850;2023-05-31T07:38:22;99422.46;;;16.09;56.33
77323;BME280;66384;51.052;9.850;2023-05-31T07:40:51;99416.36;;;16.19;55.73
77323;BME280;66384;51.052;9.850;2023-05-31T07:43:20;99416.15;;;16.27;55.68
77323;BME280;66384;51.052;9.850;2023-05-31T07:45:50;99419.20;;;16.35;55.75
77323;BME280;66384;51.052;9.850;2023-05-31T07:48:19;99418.13;;;16.45;55.34
77323;BME280;66384;51.052;9.850;2023-05-31T07:50:49;99415.66;;;16.54;55.29
77323;BME280;66384;51.052;9.850;2023-05-31T07:53:18;99411.27;;;16.64;55.15
77323;BME280;66384;51.052;9.850;2023-05-31T07:55:47;99406.55;;;16.73;54.86
77323;BME280;66384;51.052;9.850;2023-05-31T07:58:17;99403.55;;;16.81;54.77
77323;BME280;66384;51.052;9.850;2023-05-31T08:00:47;99402.27;;;16.91;54.88
77323;BME280;66384;51.052;9.850;2023-05-31T08:03:20;99401.00;;;17.00;54.88
77323;BME280;66384;51.052;9.850;2023-05-31T08:05:49;99403.55;;;17.11;54.21
77323;BME280;66384;51.052;9.850;2023-05-31T08:08:18;99402.27;;;17.22;53.61
77323;BME280;66384;51.052;9.850;2023-05-31T08:10:48;99397.53;;;17.32;53.34
77323;BME280;66384;51.052;9.850;2023-05-31T08:13:18;99395.88;;;17.42;53.06
77323;BME280;66384;51.052;9.850;2023-05-31T08:15:47;99394.94;;;17.53;53.10
77323;BME280;66384;51.052;9.850;2023-05-31T08:18:16;99391.38;;;17.63;52.16
77323;BME280;66384;51.052;9.850;2023-05-31T08:20:45;99387.98;;;17.72;51.22
77323;BME280;66384;51.052;9.850;2023-05-31T08:23:19;99382.70;;;17.82;51.18
77323;BME280;66384;51.052;9.850;2023-05-31T08:25:49;99385.56;;;17.92;50.83
77323;BME280;66384;51.052;9.850;2023-05-31T08:28:21;99382.67;;;18.01;50.51
77323;BME280;66384;51.052;9.850;2023-05-31T08:30:50;99377.00;;;18.10;50.42
77323;BME280;66384;51.052;9.850;2023-05-31T08:33:19;99373.40;;;18.20;50.24
77323;BME280;66384;51.052;9.850;2023-05-31T08:35:48;99371.73;;;18.30;49.96
77323;BME280;66384;51.052;9.850;2023-05-31T08:38:18;99369.00;;;18.40;49.81
77323;BME280;66384;51.052;9.850;2023-05-31T08:40:48;99370.27;;;18.49;49.30
77323;BME280;66384;51.052;9.850;2023-05-31T08:43:19;99364.91;;;18.59;48.68
77323;BME280;66384;51.052;9.850;2023-05-31T08:45:53;99366.51;;;18.68;48.40
77323;BME280;66384;51.052;9.850;2023-05-31T08:48:28;99364.66;;;18.78;47.87
77323;BME280;66384;51.052;9.850;2023-05-31T08:50:59;99369.05;;;18.87;47.56
77323;BME280;66384;51.052;9.850;2023-05-31T08:53:28;99365.59;;;18.96;47.46
77323;BME280;66384;51.052;9.850;2023-05-31T08:55:59;99366.33;;;19.03;47.08
77323;BME280;66384;51.052;9.850;2023-05-31T08:58:30;99361.46;;;19.11;46.63
77323;BME280;66384;51.052;9.850;2023-05-31T09:01:01;99360.60;;;19.19;46.45
77323;BME280;66384;51.052;9.850;2023-05-31T09:03:32;99361.49;;;19.28;46.04
77323;BME280;66384;51.052;9.850;2023-05-31T09:06:01;99363.08;;;19.35;45.65
77323;BME280;66384;51.052;9.850;2023-05-31T09:08:30;99361.52;;;19.41;45.50
77323;BME280;66384;51.052;9.850;2023-05-31T09:11:02;99356.98;;;19.47;44.40
77323;BME280;66384;51.052;9.850;2023-05-31T09:13:31;99363.63;;;19.53;44.25
77323;BME280;66384;51.052;9.850;2023-05-31T09:16:01;99357.51;;;19.61;44.30
77323;BME280;66384;51.052;9.850;2023-05-31T09:18:37;99357.90;;;19.68;44.45
77323;BME280;66384;51.052;9.850;2023-05-31T09:21:11;99355.63;;;19.77;43.99
77323;BME280;66384;51.052;9.850;2023-05-31T09:23:53;99354.76;;;19.86;43.11
77323;BME280;66384;51.052;9.850;2023-05-31T09:26:23;99349.85;;;19.96;42.56
77323;BME280;66384;51.052;9.850;2023-05-31T09:28:53;99350.54;;;20.04;42.33
77323;BME280;66384;51.052;9.850;2023-05-31T09:31:23;99346.16;;;20.11;41.64
77323;BME280;66384;51.052;9.850;2023-05-31T09:33:52;99349.12;;;20.20;41.44
77323;BME280;66384;51.052;9.850;2023-05-31T09:36:26;99353.11;;;20.30;41.18
77323;BME280;66384;51.052;9.850;2023-05-31T09:39:02;99340.85;;;20.37;40.56
77323;BME280;66384;51.052;9.850;2023-05-31T09:41:31;99339.10;;;20.43;39.86
77323;BME280;66384;51.052;9.850;2023-05-31T09:44:02;99335.76;;;20.48;40.14
77323;BME280;66384;51.052;9.850;2023-05-31T09:46:31;99338.40;;;20.55;40.26
77323;BME280;66384;51.052;9.850;2023-05-31T09:49:02;99334.70;;;20.61;40.79
77323;BME280;66384;51.052;9.850;2023-05-31T09:51:32;99335.73;;;20.66;40.65
77323;BME280;66384;51.052;9.850;2023-05-31T09:54:09;99331.67;;;20.73;40.24
77323;BME280;66384;51.052;9.850;2023-05-31T09:56:40;99333.22;;;20.79;39.64
77323;BME280;66384;51.052;9.850;2023-05-31T09:59:11;99331.27;;;20.84;39.35
77323;BME280;66384;51.052;9.850;2023-05-31T10:01:41;99329.48;;;20.89;39.49
77323;BME280;66384;51.052;9.850;2023-05-31T10:04:11;99326.66;;;20.95;39.44
77323;BME280;66384;51.052;9.850;2023-05-31T10:06:40;99325.58;;;21.01;39.30
77323;BME280;66384;51.052;9.850;2023-05-31T10:09:09;99322.23;;;21.05;38.84
77323;BME280;66384;51.052;9.850;2023-05-31T10:11:44;99325.87;;;21.10;38.60
77323;BME280;66384;51.052;9.850;2023-05-31T10:14:20;99324.95;;;21.17;38.27
77323;BME280;66384;51.052;9.850;2023-05-31T10:16:53;99321.24;;;21.22;37.95
77323;BME280;66384;51.052;9.850;2023-05-31T10:19:27;99316.15;;;21.27;37.82
77323;BME280;66384;51.052;9.850;2023-05-31T10:22:00;99313.30;;;21.33;36.75
77323;BME280;66384;51.052;9.850;2023-05-31T10:24:37;99313.29;;;21.37;36.14
77323;BME280;66384;51.052;9.850;2023-05-31T10:27:14;99313.78;;;21.42;36.22
77323;BME280;66384;51.052;9.850;2023-05-31T10:29:51;99315.86;;;21.45;36.11
77323;BME280;66384;51.052;9.850;2023-05-31T10:32:24;99306.91;;;21.48;36.40
77323;BME280;66384;51.052;9.850;2023-05-31T10:34:55;99301.98;;;21.51;36.36
77323;BME280;66384;51.052;9.850;2023-05-31T10:37:25;99298.98;;;21.55;36.16
77323;BME280;66384;51.052;9.850;2023-05-31T10:39:58;99298.04;;;21.61;36.21
77323;BME280;66384;51.052;9.850;2023-05-31T10:42:38;99295.73;;;21.66;36.03
77323;BME280;66384;51.052;9.850;2023-05-31T10:45:14;99284.13;;;21.70;35.30
77323;BME280;66384;51.052;9.850;2023-05-31T10:47:49;99285.85;;;21.73;35.43
77323;BME280;66384;51.052;9.850;2023-05-31T10:50:21;99283.89;;;21.78;35.11
77323;BME280;66384;51.052;9.850;2023-05-31T10:52:51;99285.05;;;21.83;34.98
77323;BME280;66384;51.052;9.850;2023-05-31T10:55:23;99282.04;;;21.88;35.54
77323;BME280;66384;51.052;9.850;2023-05-31T10:57:54;99275.00;;;21.92;35.26
77323;BME280;66384;51.052;9.850;2023-05-31T11:00:24;99275.31;;;21.95;35.17
77323;BME280;66384;51.052;9.850;2023-05-31T11:02:57;99272.30;;;21.99;35.49
77323;BME280;66384;51.052;9.850;2023-05-31T11:05:26;99271.02;;;22.04;35.46
77323;BME280;66384;51.052;9.850;2023-05-31T11:07:57;99266.56;;;22.09;35.31
77323;BME280;66384;51.052;9.850;2023-05-31T11:10:28;99266.69;;;22.14;35.47
77323;BME280;66384;51.052;9.850;2023-05-31T11:13:03;99262.64;;;22.19;35.29
77323;BME280;66384;51.052;9.850;2023-05-31T11:15:42;99262.77;;;22.21;34.83
77323;BME280;66384;51.052;9.850;2023-05-31T11:18:16;99263.27;;;22.24;35.99
77323;BME280;66384;51.052;9.850;2023-05-31T11:20:50;99260.58;;;22.29;36.42
77323;BME280;66384;51.052;9.850;2023-05-31T11:23:29;99256.52;;;22.33;36.07
77323;BME280;66384;51.052;9.850;2023-05-31T11:26:24;99254.54;;;22.36;36.02
77323;BME280;66384;51.052;9.850;2023-05-31T11:28:59;99256.41;;;22.41;36.24
77323;BME280;66384;51.052;9.850;2023-05-31T11:31:59;99256.00;;;22.45;36.36
77323;BME280;66384;51.052;9.850;2023-05-31T11:34:31;99254.85;;;22.53;36.64
77323;BME280;66384;51.052;9.850;2023-05-31T11:37:02;99243.94;;;22.56;36.08
77323;BME280;66384;51.052;9.850;2023-05-31T11:39:32;99245.30;;;22.60;37.01
77323;BME280;66384;51.052;9.850;2023-05-31T11:42:04;99241.21;;;22.63;36.82
77323;BME280;66384;51.052;9.850;2023-05-31T11:44:40;99245.02;;;22.67;36.85
77323;BME280;66384;51.052;9.850;2023-05-31T11:47:16;99242.84;;;22.72;36.85
77323;BME280;66384;51.052;9.850;2023-05-31T11:49:46;99241.00;;;22.78;36.55
77323;BME280;66384;51.052;9.850;2023-05-31T11:52:18;99242.89;;;22.81;36.72
77323;BME280;66384;51.052;9.850;2023-05-31T11:54:49;99242.66;;;22.84;36.51
77323;BME280;66384;51.052;9.850;2023-05-31T11:57:18;99238.95;;;22.85;35.83
77323;BME280;66384;51.052;9.850;2023-05-31T11:59:48;99231.04;;;22.88;35.81
77323;BME280;66384;51.052;9.850;2023-05-31T12:02:18;99235.72;;;22.91;36.03
77323;BME280;66384;51.052;9.850;2023-05-31T12:04:47;99230.94;;;22.95;35.58
77323;BME280;66384;51.052;9.850;2023-05-31T12:07:17;99223.86;;;23.00;35.39
77323;BME280;66384;51.052;9.850;2023-05-31T12:09:47;99217.84;;;23.03;34.93
77323;BME280;66384;51.052;9.850;2023-05-31T12:12:17;99219.17;;;23.08;35.44
77323;BME280;66384;51.052;9.850;2023-05-31T12:14:54;99216.10;;;23.13;35.42
77323;BME280;66384;51.052;9.850;2023-05-31T12:17:25;99210.60;;;23.17;35.14
77323;BME280;66384;51.052;9.850;2023-05-31T12:19:54;99208.44;;;23.20;35.36
77323;BME280;66384;51.052;9.850;2023-05-31T12:22:24;99204.85;;;23.25;35.07
77323;BME280;66384;51.052;9.850;2023-05-31T12:24:55;99199.34;;;23.29;34.33
77323;BME280;66384;51.052;9.850;2023-05-31T12:27:23;99199.96;;;23.34;34.46
77323;BME280;66384;51.052;9.850;2023-05-31T12:29:57;99200.05;;;23.39;34.80
77323;BME280;66384;51.052;9.850;2023-05-31T12:32:28;99197.62;;;23.47;34.59
77323;BME280;66384;51.052;9.850;2023-05-31T12:35:06;99196.61;;;23.54;34.19
77323;BME280;66384;51.052;9.850;2023-05-31T12:37:38;99190.70;;;23.60;33.32
77323;BME280;66384;51.052;9.850;2023-05-31T12:40:11;99192.50;;;23.67;33.70
77323;BME280;66384;51.052;9.850;2023-05-31T12:42:41;99187.95;;;23.77;33.91
77323;BME280;66384;51.052;9.850;2023-05-31T12:45:12;99189.75;;;23.85;33.23
77323;BME280;66384;51.052;9.850;2023-05-31T12:47:52;99190.32;;;23.91;33.18
77323;BME280;66384;51.052;9.850;2023-05-31T12:50:28;99187.02;;;23.97;32.92
77323;BME280;66384;51.052;9.850;2023-05-31T12:52:58;99191.10;;;24.04;32.69
77323;BME280;66384;51.052;9.850;2023-05-31T12:55:27;99191.31;;;24.11;33.27
77323;BME280;66384;51.052;9.850;2023-05-31T12:57:56;99186.39;;;24.19;33.30
77323;BME280;66384;51.052;9.850;2023-05-31T13:00:25;99183.75;;;24.27;33.53
77323;BME280;66384;51.052;9.850;2023-05-31T13:02:55;99188.69;;;24.35;33.13
77323;BME280;66384;51.052;9.850;2023-05-31T13:05:24;99186.61;;;24.43;32.25
77323;BME280;66384;51.052;9.850;2023-05-31T13:07:54;99185.44;;;24.49;32.09
77323;BME280;66384;51.052;9.850;2023-05-31T13:10:24;99181.45;;;24.54;32.34
77323;BME280;66384;51.052;9.850;2023-05-31T13:12:53;99181.67;;;24.60;32.40
77323;BME280;66384;51.052;9.850;2023-05-31T13:15:23;99177.02;;;24.63;31.78
77323;BME280;66384;51.052;9.850;2023-05-31T13:17:52;99175.99;;;24.69;31.99